sensor_id;sensor_type;location;lat;lon;timestamp;temperature;humidity
66257;DHT22;53049;43.446;3.698;2023-06-22T00:00:53;23.60;99.90
66257;DHT22;53049;43.446;3.698;2023-06-22T00:03:21;23.60;99.90
66257;DHT22;53049;43.446;3.698;2023-06-22T00:05:47;23.60;99.90
66257;DHT22;53049;43.446;3.698;2023-06-22T00:08:13;23.60;99.90
66257;DHT22;53049;43.446;3.698;2023-06-22T00:10:39;23.60;99.90
66257;DHT22;53049;43.446;3.698;2023-06-22T00:13:06;23.60;99.90
66257;DHT22;53049;43.446;3.698;2023-06-22T00:15:32;23.60;99.90
66257;DHT22;53049;43.446;3.698;2023-06-22T00:17:58;23.60;99.90
66257;DHT22;53049;43.446;3.698;2023-06-22T00:20:24;23.60;99.90
66257;DHT22;53049;43.446;3.698;2023-06-22T00:22:57;23.50;99.90
66257;DHT22;53049;43.446;3.698;2023-06-22T00:25:23;23.50;99.90
66257;DHT22;53049;43.446;3.698;2023-06-22T00:27:49;23.50;99.90
66257;DHT22;53049;43.446;3.698;2023-06-22T00:30:16;23.50;99.90
66257;DHT22;53049;43.446;3.698;2023-06-22T00:32:43;23.60;99.90
66257;DHT22;53049;43.446;3.698;2023-06-22T00:35:08;23.60;99.90
66257;DHT22;53049;43.446;3.698;2023-06-22T00:37:37;23.60;99.90
66257;DHT22;53049;43.446;3.698;2023-06-22T00:40:04;23.50;99.90
66257;DHT22;53049;43.446;3.698;2023-06-22T00:42:30;23.50;99.90
66257;DHT22;53049;43.446;3.698;2023-06-22T00:44:56;23.50;99.90
66257;DHT22;53049;43.446;3.698;2023-06-22T00:47:22;23.50;99.90
66257;DHT22;53049;43.446;3.698;2023-06-22T00:49:49;23.40;99.90
66257;DHT22;53049;43.446;3.698;2023-06-22T00:52:17;23.50;99.90
66257;DHT22;53049;43.446;3.698;2023-06-22T00:54:47;23.40;99.90
66257;DHT22;53049;43.446;3.698;2023-06-22T00:57:14;23.50;99.90
66257;DHT22;53049;43.446;3.698;2023-06-22T00:59:47;23.50;99.90
66257;DHT22;53049;43.446;3.698;2023-06-22T01:02:14;23.40;99.90
66257;DHT22;53049;43.446;3.698;2023-06-22T01:04:40;23.50;99.90
66257;DHT22;53049;43.446;3.698;2023-06-22T01:07:10;23.50;99.90
66257;DHT22;53049;43.446;3.698;2023-06-22T01:10:03;23.50;99.90
66257;DHT22;53049;43.446;3.698;2023-06-22T01:12:36;23.40;99.90
66257;DHT22;53049;43.446;3.698;2023-06-22T01:17:53;23.50;99.90
66257;DHT22;53049;43.446;3.698;2023-06-22T01:20:20;23.50;99.90
66257;DHT22;53049;43.446;3.698;2023-06-22T01:23:07;23.50;99.90
66257;DHT22;53049;43.446;3.698;2023-06-22T01:26:02;23.50;99.90
66257;DHT22;53049;43.446;3.698;2023-06-22T01:28:50;23.50;99.90
66257;DHT22;53049;43.446;3.698;2023-06-22T01:31:18;23.50;99.90
66257;DHT22;53049;43.446;3.698;2023-06-22T01:33:50;23.50;99.90
66257;DHT22;53049;43.446;3.698;2023-06-22T01:36:16;23.50;99.90
66257;DHT22;53049;43.446;3.698;2023-06-22T01:38:43;23.50;99.90
66257;DHT22;53049;43.446;3.698;2023-06-22T01:41:10;23.50;99.90
66257;DHT22;53049;43.446;3.698;2023-06-22T01:43:36;23.50;99.90
66257;DHT22;53049;43.446;3.698;2023-06-22T01:46:02;23.50;99.90
66257;DHT22;53049;43.446;3.698;2023-06-22T01:48:29;23.40;99.90
66257;DHT22;53049;43.446;3.698;2023-06-22T01:50:55;23.50;99.90
66257;DHT22;53049;43.446;3.698;2023-06-22T01:53:22;23.40;99.90
66257;DHT22;53049;43.446;3.698;2023-06-22T01:55:48;23.50;99.90
66257;DHT22;53049;43.446;3.698;2023-06-22T01:58:14;23.50;99.90
66257;DHT22;53049;43.446;3.698;2023-06-22T02:01:06;23.40;99.90
66257;DHT22;53049;43.446;3.698;2023-06-22T02:03:41;23.40;99.90
66257;DHT22;53049;43.446;3.698;2023-06-22T02:06:12;23.50;99.90
66257;DHT22;53049;43.446;3.698;2023-06-22T02:08:53;23.50;99.90
66257;DHT22;53049;43.446;3.698;2023-06-22T02:11:21;23.50;99.90
66257;DHT22;53049;43.446;3.698;2023-06-22T02:13:48;23.50;99.90
66257;DHT22;53049;43.446;3.698;2023-06-22T02:16:15;23.40;99.90
66257;DHT22;53049;43.446;3.698;2023-06-22T02:18:51;23.50;99.90
66257;DHT22;53049;43.446;3.698;2023-06-22T02:21:20;23.50;99.90
66257;DHT22;53049;43.446;3.698;2023-06-22T02:23:46;23.40;99.90
66257;DHT22;53049;43.446;3.698;2023-06-22T02:26:16;23.50;99.90
66257;DHT22;53049;43.446;3.698;2023-06-22T02:28:42;23.40;99.90
66257;DHT22;53049;43.446;3.698;2023-06-22T02:31:08;23.40;99.90
66257;DHT22;53049;43.446;3.698;2023-06-22T02:33:33;23.50;99.90
66257;DHT22;53049;43.446;3.698;2023-06-22T02:35:59;23.50;99.90
66257;DHT22;53049;43.446;3.698;2023-06-22T02:38:25;23.50;99.90
66257;DHT22;53049;43.446;3.698;2023-06-22T02:40:51;23.50;99.90
66257;DHT22;53049;43.446;3.698;2023-06-22T02:43:17;23.50;99.90
66257;DHT22;53049;43.446;3.698;2023-06-22T02:45:43;23.50;99.90
66257;DHT22;53049;43.446;3.698;2023-06-22T02:48:08;23.40;99.90
66257;DHT22;53049;43.446;3.698;2023-06-22T02:50:35;23.40;99.90
66257;DHT22;53049;43.446;3.698;2023-06-22T02:53:01;23.50;99.90
66257;DHT22;53049;43.446;3.698;2023-06-22T02:55:26;23.40;99.90
66257;DHT22;53049;43.446;3.698;2023-06-22T02:57:52;23.40;99.90
66257;DHT22;53049;43.446;3.698;2023-06-22T03:00:19;23.40;99.90
66257;DHT22;53049;43.446;3.698;2023-06-22T03:02:48;23.40;99.90
66257;DHT22;53049;43.446;3.698;2023-06-22T03:05:15;23.40;99.90
66257;DHT22;53049;43.446;3.698;2023-06-22T03:07:44;23.40;99.90
66257;DHT22;53049;43.446;3.698;2023-06-22T03:10:11;23.40;99.90
66257;DHT22;53049;43.446;3.698;2023-06-22T03:12:38;23.40;99.90
66257;DHT22;53049;43.446;3.698;2023-06-22T03:15:05;23.40;99.90
66257;DHT22;53049;43.446;3.698;2023-06-22T03:17:31;23.40;99.90
66257;DHT22;53049;43.446;3.698;2023-06-22T03:19:57;23.40;99.90
66257;DHT22;53049;43.446;3.698;2023-06-22T03:22:22;23.40;99.90
66257;DHT22;53049;43.446;3.698;2023-06-22T03:24:48;23.40;99.90
66257;DHT22;53049;43.446;3.698;2023-06-22T03:27:14;23.40;99.90
66257;DHT22;53049;43.446;3.698;2023-06-22T03:29:39;23.40;99.90
66257;DHT22;53049;43.446;3.698;2023-06-22T03:32:05;23.40;99.90
66257;DHT22;53049;43.446;3.698;2023-06-22T03:34:32;23.40;99.90
66257;DHT22;53049;43.446;3.698;2023-06-22T03:37:04;23.40;99.90
66257;DHT22;53049;43.446;3.698;2023-06-22T03:39:30;23.40;99.90
66257;DHT22;53049;43.446;3.698;2023-06-22T03:41:55;23.40;99.90
66257;DHT22;53049;43.446;3.698;2023-06-22T03:44:21;23.40;99.90
66257;DHT22;53049;43.446;3.698;2023-06-22T03:46:46;23.40;99.90
66257;DHT22;53049;43.446;3.698;2023-06-22T03:49:12;23.40;99.90
66257;DHT22;53049;43.446;3.698;2023-06-22T03:51:38;23.40;99.90
66257;DHT22;53049;43.446;3.698;2023-06-22T03:54:04;23.30;99.90
66257;DHT22;53049;43.446;3.698;2023-06-22T03:56:29;23.40;99.90
66257;DHT22;53049;43.446;3.698;2023-06-22T03:58:55;23.40;99.90
66257;DHT22;53049;43.446;3.698;2023-06-22T04:01:21;23.30;99.90
66257;DHT22;53049;43.446;3.698;2023-06-22T04:03:47;23.30;99.90
66257;DHT22;53049;43.446;3.698;2023-06-22T04:06:15;23.40;99.90
66257;DHT22;53049;43.446;3.698;2023-06-22T04:08:40;23.30;99.90
66257;DHT22;53049;43.446;3.698;2023-06-22T04:11:06;23.40;99.90
66257;DHT22;53049;43.446;3.698;2023-06-22T04:13:32;23.40;99.90
66257;DHT22;53049;43.446;3.698;2023-06-22T04:15:57;23.30;99.90
66257;DHT22;53049;43.446;3.698;2023-06-22T04:18:23;23.40;99.90
66257;DHT22;53049;43.446;3.698;2023-06-22T04:20:49;23.40;99.90
66257;DHT22;53049;43.446;3.698;2023-06-22T04:23:14;23.30;99.90
66257;DHT22;53049;43.446;3.698;2023-06-22T04:25:40;23.30;99.90
66257;DHT22;53049;43.446;3.698;2023-06-22T04:28:06;23.30;99.90
66257;DHT22;53049;43.446;3.698;2023-06-22T04:30:33;23.30;99.90
66257;DHT22;53049;43.446;3.698;2023-06-22T04:32:58;23.30;99.90
66257;DHT22;53049;43.446;3.698;2023-06-22T04:35:25;23.30;99.90
66257;DHT22;53049;43.446;3.698;2023-06-22T04:37:52;23.30;99.90
66257;DHT22;53049;43.446;3.698;2023-06-22T04:40:21;23.30;99.90
66257;DHT22;53049;43.446;3.698;2023-06-22T04:42:47;23.30;99.90
66257;DHT22;53049;43.446;3.698;2023-06-22T04:45:18;23.30;99.90
66257;DHT22;53049;43.446;3.698;2023-06-22T04:47:43;23.30;99.90
66257;DHT22;53049;43.446;3.698;2023-06-22T04:50:14;23.30;99.90
66257;DHT22;53049;43.446;3.698;2023-06-22T04:52:39;23.30;99.90
66257;DHT22;53049;43.446;3.698;2023-06-22T04:55:06;23.30;99.90
66257;DHT22;53049;43.446;3.698;2023-06-22T04:57:31;23.30;99.90
66257;DHT22;53049;43.446;3.698;2023-06-22T04:59:59;23.40;99.90
66257;DHT22;53049;43.446;3.698;2023-06-22T05:02:36;23.30;99.90
66257;DHT22;53049;43.446;3.698;2023-06-22T05:05:03;23.30;99.90
66257;DHT22;53049;43.446;3.698;2023-06-22T05:07:33;23.40;99.90
66257;DHT22;53049;43.446;3.698;2023-06-22T05:09:59;23.40;99.90
66257;DHT22;53049;43.446;3.698;2023-06-22T05:12:25;23.40;99.90
66257;DHT22;53049;43.446;3.698;2023-06-22T05:14:50;23.40;99.90
66257;DHT22;53049;43.446;3.698;2023-06-22T05:17:16;23.40;99.90
66257;DHT22;53049;43.446;3.698;2023-06-22T05:19:44;23.40;99.90
66257;DHT22;53049;43.446;3.698;2023-06-22T05:22:15;23.40;99.90
66257;DHT22;53049;43.446;3.698;2023-06-22T05:24:40;23.40;99.90
66257;DHT22;53049;43.446;3.698;2023-06-22T05:27:06;23.40;99.90
66257;DHT22;53049;43.446;3.698;2023-06-22T05:29:32;23.40;99.90
66257;DHT22;53049;43.446;3.698;2023-06-22T05:31:58;23.40;99.90
66257;DHT22;53049;43.446;3.698;2023-06-22T05:34:23;23.50;99.90
66257;DHT22;53049;43.446;3.698;2023-06-22T05:36:49;23.40;99.90
66257;DHT22;53049;43.446;3.698;2023-06-22T05:39:15;23.40;99.90
66257;DHT22;53049;43.446;3.698;2023-06-22T05:41:41;23.40;99.90
66257;DHT22;53049;43.446;3.698;2023-06-22T05:44:08;23.40;99.90
66257;DHT22;53049;43.446;3.698;2023-06-22T05:46:34;23.40;99.90
66257;DHT22;53049;43.446;3.698;2023-06-22T05:49:00;23.40;99.90
66257;DHT22;53049;43.446;3.698;2023-06-22T05:51:25;23.40;99.90
66257;DHT22;53049;43.446;3.698;2023-06-22T05:53:51;23.40;99.90
66257;DHT22;53049;43.446;3.698;2023-06-22T05:56:17;23.40;99.90
66257;DHT22;53049;43.446;3.698;2023-06-22T05:58:42;23.40;99.90
66257;DHT22;53049;43.446;3.698;2023-06-22T06:01:08;23.40;99.90
66257;DHT22;53049;43.446;3.698;2023-06-22T06:03:34;23.40;99.90
66257;DHT22;53049;43.446;3.698;2023-06-22T06:06:04;23.30;99.90
66257;DHT22;53049;43.446;3.698;2023-06-22T06:08:30;23.40;99.90
66257;DHT22;53049;43.446;3.698;2023-06-22T06:10:56;23.40;99.90
66257;DHT22;53049;43.446;3.698;2023-06-22T06:13:22;23.40;99.90
66257;DHT22;53049;43.446;3.698;2023-06-22T06:15:48;23.40;99.90
66257;DHT22;53049;43.446;3.698;2023-06-22T06:18:16;23.40;99.90
66257;DHT22;53049;43.446;3.698;2023-06-22T06:20:42;23.40;99.90
66257;DHT22;53049;43.446;3.698;2023-06-22T06:23:08;23.40;99.90
66257;DHT22;53049;43.446;3.698;2023-06-22T06:25:33;23.40;99.90
66257;DHT22;53049;43.446;3.698;2023-06-22T06:27:59;23.50;99.90
66257;DHT22;53049;43.446;3.698;2023-06-22T06:30:25;23.50;99.90
66257;DHT22;53049;43.446;3.698;2023-06-22T06:32:51;23.50;99.90
66257;DHT22;53049;43.446;3.698;2023-06-22T06:35:17;23.60;99.90
66257;DHT22;53049;43.446;3.698;2023-06-22T06:37:48;23.60;99.90
66257;DHT22;53049;43.446;3.698;2023-06-22T06:40:15;23.50;99.90
66257;DHT22;53049;43.446;3.698;2023-06-22T06:42:46;23.60;99.90
66257;DHT22;53049;43.446;3.698;2023-06-22T06:45:14;23.70;99.90
66257;DHT22;53049;43.446;3.698;2023-06-22T06:47:40;23.80;99.90
66257;DHT22;53049;43.446;3.698;2023-06-22T06:50:06;23.80;99.90
66257;DHT22;53049;43.446;3.698;2023-06-22T06:52:33;23.90;99.90
66257;DHT22;53049;43.446;3.698;2023-06-22T06:54:59;23.90;99.90
66257;DHT22;53049;43.446;3.698;2023-06-22T06:57:25;23.90;99.90
66257;DHT22;53049;43.446;3.698;2023-06-22T06:59:55;24.00;99.90
66257;DHT22;53049;43.446;3.698;2023-06-22T07:02:21;24.00;99.90
66257;DHT22;53049;43.446;3.698;2023-06-22T07:04:47;24.10;99.90
66257;DHT22;53049;43.446;3.698;2023-06-22T07:07:13;24.10;99.90
66257;DHT22;53049;43.446;3.698;2023-06-22T07:09:39;24.10;99.90
66257;DHT22;53049;43.446;3.698;2023-06-22T07:12:05;24.00;99.90
66257;DHT22;53049;43.446;3.698;2023-06-22T07:14:31;24.10;99.90
66257;DHT22;53049;43.446;3.698;2023-06-22T07:16:59;24.10;99.90
66257;DHT22;53049;43.446;3.698;2023-06-22T07:19:25;24.20;99.90
66257;DHT22;53049;43.446;3.698;2023-06-22T07:21:52;24.50;99.90
66257;DHT22;53049;43.446;3.698;2023-06-22T07:24:19;24.70;99.90
66257;DHT22;53049;43.446;3.698;2023-06-22T07:26:49;24.80;99.90
66257;DHT22;53049;43.446;3.698;2023-06-22T07:29:19;25.20;99.90
66257;DHT22;53049;43.446;3.698;2023-06-22T07:31:48;25.30;99.90
66257;DHT22;53049;43.446;3.698;2023-06-22T07:34:15;25.30;99.90
66257;DHT22;53049;43.446;3.698;2023-06-22T07:36:41;25.20;99.90
66257;DHT22;53049;43.446;3.698;2023-06-22T07:39:06;25.00;99.90
66257;DHT22;53049;43.446;3.698;2023-06-22T07:41:32;24.90;99.90
66257;DHT22;53049;43.446;3.698;2023-06-22T07:43:58;24.80;99.90
66257;DHT22;53049;43.446;3.698;2023-06-22T07:46:23;24.60;99.90
66257;DHT22;53049;43.446;3.698;2023-06-22T07:48:51;24.60;99.90
66257;DHT22;53049;43.446;3.698;2023-06-22T07:51:17;24.50;99.90
66257;DHT22;53049;43.446;3.698;2023-06-22T07:53:43;24.50;99.90
66257;DHT22;53049;43.446;3.698;2023-06-22T07:56:13;24.50;99.90
66257;DHT22;53049;43.446;3.698;2023-06-22T07:58:44;24.40;99.90
66257;DHT22;53049;43.446;3.698;2023-06-22T08:01:10;24.40;99.90
66257;DHT22;53049;43.446;3.698;2023-06-22T08:03:36;24.50;99.90
66257;DHT22;53049;43.446;3.698;2023-06-22T08:06:02;24.60;99.90
66257;DHT22;53049;43.446;3.698;2023-06-22T08:08:27;24.60;99.90
66257;DHT22;53049;43.446;3.698;2023-06-22T08:10:53;24.70;99.90
66257;DHT22;53049;43.446;3.698;2023-06-22T08:13:19;24.80;99.90
66257;DHT22;53049;43.446;3.698;2023-06-22T08:15:47;24.90;99.90
66257;DHT22;53049;43.446;3.698;2023-06-22T08:18:13;24.90;99.90
66257;DHT22;53049;43.446;3.698;2023-06-22T08:20:38;24.90;99.90
66257;DHT22;53049;43.446;3.698;2023-06-22T08:23:04;25.50;99.90
66257;DHT22;53049;43.446;3.698;2023-06-22T08:25:34;26.00;99.90
66257;DHT22;53049;43.446;3.698;2023-06-22T08:28:03;26.30;99.90
66257;DHT22;53049;43.446;3.698;2023-06-22T08:30:29;26.50;99.90
66257;DHT22;53049;43.446;3.698;2023-06-22T08:32:55;27.00;99.90
66257;DHT22;53049;43.446;3.698;2023-06-22T08:35:23;27.30;99.90
66257;DHT22;53049;43.446;3.698;2023-06-22T08:37:48;27.50;99.90
66257;DHT22;53049;43.446;3.698;2023-06-22T08:40:22;27.00;99.90
66257;DHT22;53049;43.446;3.698;2023-06-22T08:42:48;26.70;99.90
66257;DHT22;53049;43.446;3.698;2023-06-22T08:45:15;26.60;99.90
66257;DHT22;53049;43.446;3.698;2023-06-22T08:47:41;26.50;99.90
66257;DHT22;53049;43.446;3.698;2023-06-22T08:50:11;26.40;99.90
66257;DHT22;53049;43.446;3.698;2023-06-22T08:52:39;26.00;99.90
66257;DHT22;53049;43.446;3.698;2023-06-22T08:55:07;25.80;99.90
66257;DHT22;53049;43.446;3.698;2023-06-22T08:57:33;25.60;99.90
66257;DHT22;53049;43.446;3.698;2023-06-22T08:59:59;25.40;99.90
66257;DHT22;53049;43.446;3.698;2023-06-22T09:02:28;25.40;99.90
66257;DHT22;53049;43.446;3.698;2023-06-22T09:04:57;25.30;99.90
66257;DHT22;53049;43.446;3.698;2023-06-22T09:07:24;25.30;99.90
66257;DHT22;53049;43.446;3.698;2023-06-22T09:09:50;25.30;99.90
66257;DHT22;53049;43.446;3.698;2023-06-22T09:12:18;25.30;99.90
66257;DHT22;53049;43.446;3.698;2023-06-22T09:14:45;25.30;99.90
66257;DHT22;53049;43.446;3.698;2023-06-22T09:17:12;25.30;99.90
66257;DHT22;53049;43.446;3.698;2023-06-22T09:19:38;25.30;99.90
66257;DHT22;53049;43.446;3.698;2023-06-22T09:22:04;25.20;99.90
66257;DHT22;53049;43.446;3.698;2023-06-22T09:24:32;25.30;99.90
66257;DHT22;53049;43.446;3.698;2023-06-22T09:26:57;25.50;99.90
66257;DHT22;53049;43.446;3.698;2023-06-22T09:29:23;25.50;99.90
66257;DHT22;53049;43.446;3.698;2023-06-22T09:31:49;25.50;99.90
66257;DHT22;53049;43.446;3.698;2023-06-22T09:34:14;25.40;99.90
66257;DHT22;53049;43.446;3.698;2023-06-22T09:36:41;25.30;99.90
66257;DHT22;53049;43.446;3.698;2023-06-22T09:39:07;25.20;99.90
66257;DHT22;53049;43.446;3.698;2023-06-22T09:41:32;25.20;99.90
66257;DHT22;53049;43.446;3.698;2023-06-22T09:43:58;25.10;99.90
66257;DHT22;53049;43.446;3.698;2023-06-22T09:46:23;25.00;99.90
66257;DHT22;53049;43.446;3.698;2023-06-22T09:48:53;25.00;99.90
66257;DHT22;53049;43.446;3.698;2023-06-22T09:51:19;25.00;99.90
66257;DHT22;53049;43.446;3.698;2023-06-22T09:53:46;25.00;99.90
66257;DHT22;53049;43.446;3.698;2023-06-22T09:56:12;24.90;99.90
66257;DHT22;53049;43.446;3.698;2023-06-22T09:58:41;25.00;99.90
66257;DHT22;53049;43.446;3.698;2023-06-22T10:01:07;25.10;99.90
66257;DHT22;53049;43.446;3.698;2023-06-22T10:03:33;25.20;99.90
66257;DHT22;53049;43.446;3.698;2023-06-22T10:05:58;25.10;99.90
66257;DHT22;53049;43.446;3.698;2023-06-22T10:08:24;25.10;99.90
66257;DHT22;53049;43.446;3.698;2023-06-22T10:10:50;25.20;99.90
66257;DHT22;53049;43.446;3.698;2023-06-22T10:13:15;25.10;99.90
66257;DHT22;53049;43.446;3.698;2023-06-22T10:15:41;25.10;99.90
66257;DHT22;53049;43.446;3.698;2023-06-22T10:18:08;25.10;99.90
66257;DHT22;53049;43.446;3.698;2023-06-22T10:20:33;25.20;99.90
66257;DHT22;53049;43.446;3.698;2023-06-22T10:22:59;25.30;99.90
66257;DHT22;53049;43.446;3.698;2023-06-22T10:25:24;25.30;99.90
66257;DHT22;53049;43.446;3.698;2023-06-22T10:27:50;25.50;99.90
66257;DHT22;53049;43.446;3.698;2023-06-22T10:30:16;25.40;99.90
66257;DHT22;53049;43.446;3.698;2023-06-22T10:32:42;25.40;99.90
66257;DHT22;53049;43.446;3.698;2023-06-22T10:35:09;25.50;99.90
66257;DHT22;53049;43.446;3.698;2023-06-22T10:37:42;25.60;99.90
66257;DHT22;53049;43.446;3.698;2023-06-22T10:40:08;25.50;99.90
66257;DHT22;53049;43.446;3.698;2023-06-22T10:42:34;25.40;99.90
66257;DHT22;53049;43.446;3.698;2023-06-22T10:45:00;25.20;99.90
66257;DHT22;53049;43.446;3.698;2023-06-22T10:47:26;25.10;99.90
66257;DHT22;53049;43.446;3.698;2023-06-22T10:49:51;24.90;99.90
66257;DHT22;53049;43.446;3.698;2023-06-22T10:52:17;23.90;99.90
66257;DHT22;53049;43.446;3.698;2023-06-22T10:54:43;23.00;99.90
66257;DHT22;53049;43.446;3.698;2023-06-22T10:57:08;22.50;99.90
66257;DHT22;53049;43.446;3.698;2023-06-22T10:59:34;22.50;99.90
66257;DHT22;53049;43.446;3.698;2023-06-22T11:02:00;22.20;99.90
66257;DHT22;53049;43.446;3.698;2023-06-22T11:04:26;22.50;99.90
66257;DHT22;53049;43.446;3.698;2023-06-22T11:06:51;22.50;99.90
66257;DHT22;53049;43.446;3.698;2023-06-22T11:09:17;22.90;99.90
66257;DHT22;53049;43.446;3.698;2023-06-22T11:11:50;23.20;99.90
66257;DHT22;53049;43.446;3.698;2023-06-22T11:14:19;23.50;99.90
66257;DHT22;53049;43.446;3.698;2023-06-22T11:16:44;23.60;99.90
66257;DHT22;53049;43.446;3.698;2023-06-22T11:19:11;23.80;99.90
66257;DHT22;53049;43.446;3.698;2023-06-22T11:21:37;23.90;99.90
66257;DHT22;53049;43.446;3.698;2023-06-22T11:24:03;23.90;99.90
66257;DHT22;53049;43.446;3.698;2023-06-22T11:26:29;24.10;99.90
66257;DHT22;53049;43.446;3.698;2023-06-22T11:28:55;24.20;99.90
66257;DHT22;53049;43.446;3.698;2023-06-22T11:31:21;24.50;99.90
66257;DHT22;53049;43.446;3.698;2023-06-22T11:33:46;24.70;99.90
66257;DHT22;53049;43.446;3.698;2023-06-22T11:36:14;24.80;99.90
66257;DHT22;53049;43.446;3.698;2023-06-22T11:38:40;25.00;99.90
66257;DHT22;53049;43.446;3.698;2023-06-22T11:41:06;25.10;99.90
66257;DHT22;53049;43.446;3.698;2023-06-22T11:43:32;25.10;99.90
66257;DHT22;53049;43.446;3.698;2023-06-22T11:45:57;25.10;99.90
66257;DHT22;53049;43.446;3.698;2023-06-22T11:48:26;25.20;99.90
66257;DHT22;53049;43.446;3.698;2023-06-22T11:50:52;25.10;99.90
66257;DHT22;53049;43.446;3.698;2023-06-22T11:53:17;25.10;99.90
66257;DHT22;53049;43.446;3.698;2023-06-22T11:55:43;25.20;99.90
66257;DHT22;53049;43.446;3.698;2023-06-22T11:58:09;25.50;99.90
66257;DHT22;53049;43.446;3.698;2023-06-22T12:00:35;25.40;99.90
66257;DHT22;53049;43.446;3.698;2023-06-22T12:03:01;25.30;99.90
66257;DHT22;53049;43.446;3.698;2023-06-22T12:05:26;25.20;99.90
66257;DHT22;53049;43.446;3.698;2023-06-22T12:07:55;25.30;99.90
66257;DHT22;53049;43.446;3.698;2023-06-22T12:10:22;25.20;99.90
66257;DHT22;53049;43.446;3.698;2023-06-22T12:12:48;25.10;99.90
66257;DHT22;53049;43.446;3.698;2023-06-22T12:15:14;25.00;99.90
66257;DHT22;53049;43.446;3.698;2023-06-22T12:17:40;24.80;99.90
66257;DHT22;53049;43.446;3.698;2023-06-22T12:20:08;24.90;99.90
66257;DHT22;53049;43.446;3.698;2023-06-22T12:22:34;24.90;99.90
66257;DHT22;53049;43.446;3.698;2023-06-22T12:25:00;24.70;99.90
66257;DHT22;53049;43.446;3.698;2023-06-22T12:27:27;24.60;99.90
66257;DHT22;53049;43.446;3.698;2023-06-22T12:29:52;24.30;99.90
66257;DHT22;53049;43.446;3.698;2023-06-22T12:32:18;24.20;99.90
66257;DHT22;53049;43.446;3.698;2023-06-22T12:34:44;24.10;99.90
66257;DHT22;53049;43.446;3.698;2023-06-22T12:37:10;23.90;99.90
66257;DHT22;53049;43.446;3.698;2023-06-22T12:39:36;24.00;99.90
66257;DHT22;53049;43.446;3.698;2023-06-22T12:42:01;23.90;99.90
66257;DHT22;53049;43.446;3.698;2023-06-22T12:44:27;23.80;99.90
66257;DHT22;53049;43.446;3.698;2023-06-22T12:46:53;23.90;99.90
66257;DHT22;53049;43.446;3.698;2023-06-22T12:49:19;23.90;99.90
66257;DHT22;53049;43.446;3.698;2023-06-22T12:51:45;23.90;99.90
66257;DHT22;53049;43.446;3.698;2023-06-22T12:54:11;24.10;99.90
66257;DHT22;53049;43.446;3.698;2023-06-22T12:56:38;24.30;99.90
66257;DHT22;53049;43.446;3.698;2023-06-22T12:59:04;24.70;99.90
66257;DHT22;53049;43.446;3.698;2023-06-22T13:01:30;24.80;99.90
66257;DHT22;53049;43.446;3.698;2023-06-22T13:03:57;24.80;99.90
66257;DHT22;53049;43.446;3.698;2023-06-22T13:06:23;24.60;99.90
66257;DHT22;53049;43.446;3.698;2023-06-22T13:08:49;24.30;99.90
66257;DHT22;53049;43.446;3.698;2023-06-22T13:11:15;24.20;99.90
66257;DHT22;53049;43.446;3.698;2023-06-22T13:13:40;24.30;99.90
66257;DHT22;53049;43.446;3.698;2023-06-22T13:16:06;24.50;99.90
66257;DHT22;53049;43.446;3.698;2023-06-22T13:18:32;24.90;99.90
66257;DHT22;53049;43.446;3.698;2023-06-22T13:20:59;25.10;99.90
66257;DHT22;53049;43.446;3.698;2023-06-22T13:23:25;25.20;99.90
66257;DHT22;53049;43.446;3.698;2023-06-22T13:25:51;25.10;1.00
66257;DHT22;53049;43.446;3.698;2023-06-22T13:28:17;25.10;1.00
66257;DHT22;53049;43.446;3.698;2023-06-22T13:30:43;25.10;99.90
66257;DHT22;53049;43.446;3.698;2023-06-22T13:33:11;25.00;1.00
66257;DHT22;53049;43.446;3.698;2023-06-22T13:35:37;25.00;99.90
66257;DHT22;53049;43.446;3.698;2023-06-22T13:38:03;24.70;45.30
66257;DHT22;53049;43.446;3.698;2023-06-22T13:40:29;24.40;1.00
66257;DHT22;53049;43.446;3.698;2023-06-22T13:42:56;24.20;1.00
66257;DHT22;53049;43.446;3.698;2023-06-22T13:45:22;24.10;1.00
66257;DHT22;53049;43.446;3.698;2023-06-22T13:47:48;24.00;1.00
66257;DHT22;53049;43.446;3.698;2023-06-22T13:50:14;24.10;1.00
66257;DHT22;53049;43.446;3.698;2023-06-22T13:52:40;24.10;1.00
66257;DHT22;53049;43.446;3.698;2023-06-22T13:55:06;24.30;99.90
66257;DHT22;53049;43.446;3.698;2023-06-22T13:57:35;24.70;99.90
66257;DHT22;53049;43.446;3.698;2023-06-22T14:00:03;24.80;99.90
66257;DHT22;53049;43.446;3.698;2023-06-22T14:02:30;24.80;99.90
66257;DHT22;53049;43.446;3.698;2023-06-22T14:04:57;25.00;99.90
66257;DHT22;53049;43.446;3.698;2023-06-22T14:07:22;25.30;99.90
66257;DHT22;53049;43.446;3.698;2023-06-22T14:09:49;25.40;99.90
66257;DHT22;53049;43.446;3.698;2023-06-22T14:12:16;25.50;99.90
66257;DHT22;53049;43.446;3.698;2023-06-22T14:14:43;25.70;99.90
66257;DHT22;53049;43.446;3.698;2023-06-22T14:17:09;25.90;99.90
66257;DHT22;53049;43.446;3.698;2023-06-22T14:19:35;26.10;99.90
66257;DHT22;53049;43.446;3.698;2023-06-22T14:22:01;26.10;99.90
66257;DHT22;53049;43.446;3.698;2023-06-22T14:24:27;26.20;99.90
66257;DHT22;53049;43.446;3.698;2023-06-22T14:26:53;26.30;99.90
66257;DHT22;53049;43.446;3.698;2023-06-22T14:29:20;26.40;99.90
66257;DHT22;53049;43.446;3.698;2023-06-22T14:31:48;26.50;99.90
66257;DHT22;53049;43.446;3.698;2023-06-22T14:34:15;26.60;99.90
66257;DHT22;53049;43.446;3.698;2023-06-22T14:36:41;26.60;99.90
66257;DHT22;53049;43.446;3.698;2023-06-22T14:39:07;26.80;99.90
66257;DHT22;53049;43.446;3.698;2023-06-22T14:41:33;26.80;99.90
66257;DHT22;53049;43.446;3.698;2023-06-22T14:43:59;26.90;99.90
66257;DHT22;53049;43.446;3.698;2023-06-22T14:46:24;26.90;99.90
66257;DHT22;53049;43.446;3.698;2023-06-22T14:48:50;27.00;99.90
66257;DHT22;53049;43.446;3.698;2023-06-22T14:51:16;27.00;99.90
66257;DHT22;53049;43.446;3.698;2023-06-22T14:53:43;27.00;99.90
66257;DHT22;53049;43.446;3.698;2023-06-22T14:56:08;27.10;99.90
66257;DHT22;53049;43.446;3.698;2023-06-22T14:58:34;27.20;99.90
66257;DHT22;53049;43.446;3.698;2023-06-22T15:01:03;27.20;99.90
66257;DHT22;53049;43.446;3.698;2023-06-22T15:03:34;27.30;99.90
66257;DHT22;53049;43.446;3.698;2023-06-22T15:06:01;27.30;99.90
66257;DHT22;53049;43.446;3.698;2023-06-22T15:08:27;27.30;99.90
66257;DHT22;53049;43.446;3.698;2023-06-22T15:10:53;27.50;99.90
66257;DHT22;53049;43.446;3.698;2023-06-22T15:13:19;27.50;99.90
66257;DHT22;53049;43.446;3.698;2023-06-22T15:15:46;27.50;99.90
66257;DHT22;53049;43.446;3.698;2023-06-22T15:18:13;27.30;99.90
66257;DHT22;53049;43.446;3.698;2023-06-22T15:20:39;27.20;99.90
66257;DHT22;53049;43.446;3.698;2023-06-22T15:23:06;27.30;99.90
66257;DHT22;53049;43.446;3.698;2023-06-22T15:25:32;27.30;99.90
66257;DHT22;53049;43.446;3.698;2023-06-22T15:27:58;27.20;99.90
66257;DHT22;53049;43.446;3.698;2023-06-22T15:30:23;27.00;99.90